• Join FlightAware (Why Join?)
  • Login
  • US Flag 
11:27PM EST


 

Airport Tracker/Info


-or-


 

Live Flight TrackerFlight Track Log ✈ RPA3228 ✈ 16-May-2013 ✈ KDSM - KDCA

Flight Track Log - Related Links

Times and Time Zones

All times are in EDT time to prevent confusion due to time zone crossing. See the RPA3228 flight status page for this flight to view local times or setup timezone preferences in your user account.

Time Position Orientation Groundspeed Altitude Reporting Facility
EDT Latitude Longitude Course Direction KTS MPH feet Rate Location/Type
07:02AM 41.5564 -93.6736 195° South 168 193 1,700  Level Minneapolis Center
07:02AM 41.5633 -93.6897 300° West 171 197 2,200 1,260 Climbing Minneapolis Center
07:03AM 41.5625 -93.7422 269° West 195 224 2,900 1,500 Climbing Minneapolis Center
07:04AM 41.1940 -93.7311 198° South  Level FlightAware Approximate
07:04AM 41.5092 -93.7872 212° Southwest 263 303 4,700  Level Minneapolis Center
07:05AM 41.0731 -93.7808 197° South  Level FlightAware Approximate
07:05AM 41.4317 -93.8017 188° South 282 325 7,400  Level Minneapolis Center
07:06AM 40.9510 -93.8248 191° South  Level FlightAware Approximate
07:06AM 41.3517 -93.8183 189° South 291 335 10,400  Level Minneapolis Center
07:07AM 40.8283 -93.8655 195° South  Level FlightAware Approximate
07:07AM 41.2686 -93.8347 188° South 301 346 12,300  Level Minneapolis Center
07:08AM 41.1719 -93.8539 188° South 323 372 14,700 2,280 Climbing Minneapolis Center
07:09AM 41.0814 -93.8706 188° South 328 377 17,000 1,920 Climbing Minneapolis Center
07:10AM 40.9983 -93.8889 189° South 333 383 18,600 1,320 Climbing Minneapolis Center
07:11AM 40.9014 -93.9078 188° South 346 398 19,700 1,260 Climbing Minneapolis Center
07:12AM 40.7978 -93.9272 188° South 363 418 21,200 1,440 Climbing Minneapolis Center
07:13AM 40.6717 -93.9536 189° South 379 436 22,900 1,260 Climbing Minneapolis Center
07:14AM 40.5694 -93.9114 163° South 401 461 24,100 1,440 Climbing Minneapolis Center
07:15AM 40.5122 -93.7886 121° Southeast 397 457 25,900 1,740 Climbing Minneapolis Center
07:16AM 40.4436 -93.6433 122° Southeast 395 455 27,700 1,500 Climbing Minneapolis Center
07:17AM 40.3836 -93.5211 123° Southeast 398 458 29,000 1,140 Climbing Minneapolis Center
07:18AM 40.3475 -93.4444 122° Southeast 402 463 29,700 1,260 Climbing Kansas City Center
07:19AM 40.2883 -93.3217 122° Southeast 403 464 31,200 900 Climbing Kansas City Center
07:20AM 40.2269 -93.1931 122° Southeast 415 478 31,600 420 Climbing Kansas City Center
07:21AM 40.1608 -93.0583 123° Southeast 435 501 32,100 780 Climbing Kansas City Center
07:22AM 40.0917 -92.9150 122° Southeast 438 504 33,200 1,140 Climbing Kansas City Center
07:23AM 40.0217 -92.7714 122° Southeast 433 498 34,400 840 Climbing Kansas City Center
07:24AM 39.9697 -92.6328 116° Southeast 436 502 35,000 240 Climbing Kansas City Center
07:25AM 39.9269 -92.4858 111° Southeast 443 510 35,000  Level Kansas City Center
07:26AM 39.8836 -92.3364 111° Southeast 446 513 35,000  Level Kansas City Center
07:27AM 39.8394 -92.1886 111° Southeast 445 512 35,000  Level Kansas City Center
07:28AM 39.7972 -92.0411 110° East 442 509 35,000  Level Kansas City Center
07:29AM 39.7608 -91.8558 104° East 444 511 35,000  Level Kansas City Center
07:30AM 39.7422 -91.7022 99° East 439 505 35,000  Level Kansas City Center
07:31AM 39.7247 -91.5497 98° East 434 499 35,000  Level Kansas City Center
07:32AM 39.7064 -91.3936 99° East 439 505 35,000  Level Kansas City Center
07:33AM 39.6883 -91.2397 99° East 441 507 35,000  Level Kansas City Center
07:34AM 39.6697 -91.0811 99° East 443 510 35,000  Level Kansas City Center
07:35AM 39.6503 -90.9217 99° East 445 512 35,000  Level Kansas City Center
07:36AM 39.6314 -90.7622 99° East 447 514 35,000  Level Kansas City Center
07:37AM 39.6114 -90.6019 99° East 448 516 35,000  Level Kansas City Center
07:38AM 39.5911 -90.4417 99° East 449 517 35,000  Level Kansas City Center
07:39AM 39.5706 -90.2819 99° East 450 518 35,000  Level Kansas City Center
07:40AM 39.5511 -90.1228 99° East 448 516 35,000  Level Kansas City Center
07:41AM 39.5300 -89.9639 100° East 447 514 35,000  Level Kansas City Center
07:42AM 39.5092 -89.8053 100° East 446 513 35,000  Level Kansas City Center
07:43AM 39.4850 -89.6158 99° East 445 512 35,000  Level Kansas City Center
07:44AM 39.4639 -89.4578 100° East 445 512 35,000  Level Kansas City Center
07:45AM 39.4428 -89.3014 100° East 442 509 35,000  Level Kansas City Center
07:46AM 39.4206 -89.1422 100° East 443 510 35,000  Level Kansas City Center
07:47AM 39.3986 -88.9856 100° East 446 513 35,000  Level Kansas City Center
07:48AM 39.3775 -88.8256 100° East 445 512 35,000  Level Kansas City Center
07:49AM 39.3567 -88.6711 100° East 445 512 35,000  Level Kansas City Center
07:50AM 39.3322 -88.5072 101° East 448 516 35,000  Level Kansas City Center
07:51AM 39.3106 -88.3478 100° East 450 518 35,000  Level Kansas City Center
07:52AM 39.2878 -88.1886 100° East 449 517 35,000  Level Kansas City Center
07:53AM 39.2639 -88.0300 101° East 448 516 35,000  Level Kansas City Center
07:54AM 39.2400 -87.8728 101° East 446 513 35,000  Level Kansas City Center
07:55AM 39.2197 -87.7481 102° East 445 512 35,000  Level Indianapolis Center
07:56AM 39.1964 -87.5900 101° East 452 520 35,000  Level Indianapolis Center
07:57AM 39.1722 -87.4314 101° East 454 522 35,000  Level Indianapolis Center
07:58AM 39.1489 -87.2739 101° East 452 520 35,000  Level Indianapolis Center
07:59AM 39.1222 -87.1075 102° East 451 519 35,000  Level Indianapolis Center
08:00AM 39.0978 -86.9478 101° East 451 519 35,000  Level Indianapolis Center
08:01AM 39.0719 -86.7872 102° East 454 522 35,000  Level Indianapolis Center
08:02AM 39.0414 -86.5956 102° East 453 521 35,000  Level Indianapolis Center
08:03AM 39.0192 -86.4558 102° East 454 522 35,000  Level Indianapolis Center
08:04AM 38.9922 -86.2983 102° East 455 524 35,000  Level Indianapolis Center
08:05AM 38.9617 -86.1081 102° East 459 528 35,000  Level Indianapolis Center
08:06AM 38.9350 -85.9492 102° East 459 528 35,000  Level Indianapolis Center
08:07AM 38.9083 -85.7903 102° East 460 529 35,000  Level Indianapolis Center
08:08AM 38.8822 -85.6328 102° East 456 525 35,000  Level Indianapolis Center
08:10AM 38.8553 -85.4739 102° East 458 527 35,000  Level Indianapolis Center
08:11AM 38.8231 -85.2842 102° East 457 526 35,000  Level Indianapolis Center
08:12AM 38.7944 -85.1256 103° East 459 528 35,000  Level Indianapolis Center
08:13AM 38.7672 -84.9678 102° East 457 526 35,000  Level Indianapolis Center
08:14AM 38.7394 -84.8083 103° East 460 529 35,000  Level Indianapolis Center
08:15AM 38.7106 -84.6508 103° East 458 527 35,000  Level Indianapolis Center
08:16AM 38.6783 -84.4681 103° East 455 524 35,000  Level Indianapolis Center
08:17AM 38.6503 -84.3078 103° East 458 527 35,000  Level Indianapolis Center
08:18AM 38.6325 -84.1525 98° East 459 528 35,000  Level Indianapolis Center
08:19AM 38.6150 -83.9914 98° East 458 527 35,000  Level Indianapolis Center
08:20AM 38.5967 -83.8269 98° East 463 533 35,000  Level Indianapolis Center
08:21AM 38.5758 -83.6367 98° East 463 533 35,000  Level Indianapolis Center
08:22AM 38.5578 -83.4756 98° East 459 528 35,000  Level Indianapolis Center
08:23AM 38.5381 -83.3125 99° East 462 532 35,000  Level Indianapolis Center
08:24AM 38.5197 -83.1478 98° East 467 537 35,000  Level Indianapolis Center
08:25AM 38.5011 -82.9842 98° East 465 535 35,000  Level Indianapolis Center
08:26AM 38.4806 -82.8211 99° East 464 534 35,000  Level Indianapolis Center
08:27AM 38.4606 -82.6561 99° East 468 539 35,000  Level Indianapolis Center
08:28AM 38.4394 -82.4822 99° East 468 539 35,000  Level Indianapolis Center
08:29AM 38.4186 -82.3189 99° East 469 540 35,000  Level Indianapolis Center
08:30AM 38.3983 -82.1556 99° East 470 541 35,000  Level Indianapolis Center
08:31AM 38.3736 -81.9589 99° East 471 542 35,000  Level Indianapolis Center
08:32AM 38.3542 -81.7978 99° East 465 535 35,000  Level Indianapolis Center
08:33AM 38.3461 -81.6331 94° East 470 541 35,000  Level Indianapolis Center
08:34AM 38.3403 -81.4681 93° East 471 542 35,000  Level Indianapolis Center
08:35AM 38.3342 -81.3017 93° East 475 547 35,000  Level Indianapolis Center
08:36AM 38.3286 -81.1350 92° East 474 545 35,000  Level Indianapolis Center
08:37AM 38.3236 -81.0678 95° East 461 531 35,000  Level Washington Center
08:38AM 38.3189 -80.8956 92° East 467 537 35,000  Level Washington Center
08:39AM 38.3136 -80.7283 92° East 472 543 35,000  Level Washington Center
08:40AM 38.3086 -80.5456 92° East 472 543 35,000  Level Washington Center
08:41AM 38.3008 -80.3781 93° East 477 549 35,000  Level Washington Center
08:42AM 38.3136 -80.2122 84° East 472 543 35,000  Level Washington Center
08:43AM 38.3367 -80.0494 80° East 467 537 35,000  Level Washington Center
08:44AM 38.3592 -79.8867 80° East 467 537 35,000  Level Washington Center
08:45AM 38.3789 -79.7394 80° East 467 537 35,000  Level Washington Center
08:46AM 38.4011 -79.5764 80° East 467 537 35,000 -660 Level Washington Center
08:47AM 38.4233 -79.4106 80° East 467 537 33,700 -1,920 Descending Washington Center
08:48AM 38.4450 -79.2475 80° East 467 537 31,300 -2,700 Descending Washington Center
08:49AM 38.4689 -79.0789 80° East 457 526 28,500 -2,280 Descending Washington Center
08:50AM 38.4897 -78.9258 80° East 443 510 26,800 -1,620 Descending Washington Center
08:51AM 38.5122 -78.7944 78° East 430 495 25,300 -1,740 Descending Washington Center
08:52AM 38.5328 -78.6467 80° East 424 488 23,300 -2,280 Descending Washington Center
08:53AM 38.5569 -78.5042 78° East 419 482 20,900 -2,460 Descending Washington Center
08:54AM 38.5997 -78.3731 67° East 412 474 18,500 -2,340 Descending Washington Center
08:55AM 38.6606 -78.2664 54° Northeast 383 441 16,200 -1,860 Descending Washington Center
08:56AM 38.6553 -78.1331 93° East 360 414 14,800 -960 Descending Washington Center
08:57AM 38.6722 -78.0089 80° East 352 405 14,300 -720 Descending Washington Center
08:58AM 38.7122 -77.8931 66° East 352 405 13,400 -1,080 Descending Washington Center
08:59AM 38.7664 -77.7803 58° Northeast 338 389 12,200 -1,260 Descending Washington Center
09:00AM 38.8242 -77.6939 49° Northeast 333 383 10,900 -1,380 Descending Washington Center
09:01AM 38.8819 -77.6103 48° Northeast 313 360 9,500 -1,500 Descending Washington Center
09:01AM 38.9000 -77.5833 49° Northeast 313 360 9,100 -1,380 Descending Potomac TRACON
09:02AM 38.9500 -77.5000 52° Northeast 298 343 7,800 -1,200 Descending Potomac TRACON
09:03AM 38.9833 -77.4167 63° Northeast 270 311 6,800 -960 Descending Potomac TRACON
09:04AM 39.0000 -77.3333 76° East 261 300 6,000 -900 Descending Potomac TRACON
09:05AM 38.9833 -77.2333 102° East 244 281 5,100 -1,200 Descending Potomac TRACON
09:06AM 38.9667 -77.1667 108° East 211 243 3,700 -1,440 Descending Potomac TRACON